Time;durP1;ratioP1;P1;durP2;ratioP2;P2;SDS_P1;SDS_P2;PMS_P1;PMS_P2;Temp;Humidity;BMP_temperature;BMP_pressure;BME280_temperature;BME280_humidity;BME280_pressure;Samples;Min_cycle;Max_cycle;Signal;HPM_P1;HPM_P2
2021/07/05 00:02:16;;;;;;;37.30;25.33;;;16.80;99.90;;;;;;4991357;28;20029;-82
2021/07/05 00:04:42;;;;;;;34.60;25.60;;;16.80;99.90;;;;;;4990072;28;20049;-82
2021/07/05 00:07:09;;;;;;;36.13;25.55;;;16.80;99.90;;;;;;5018068;28;20116;-83
2021/07/05 00:09:36;;;;;;;37.30;25.88;;;16.80;99.90;;;;;;5016379;28;20052;-82
2021/07/05 00:12:03;;;;;;;35.75;26.20;;;16.80;99.90;;;;;;5000405;28;20037;-82
2021/07/05 00:14:29;;;;;;;32.35;24.73;;;16.80;99.90;;;;;;4986061;28;20084;-81
2021/07/05 00:16:55;;;;;;;33.28;24.33;;;16.80;99.90;;;;;;5001185;28;20040;-81
2021/07/05 00:19:21;;;;;;;28.15;22.23;;;16.80;99.90;;;;;;4988557;28;20037;-83
2021/07/05 00:21:47;;;;;;;30.35;24.52;;;16.80;99.90;;;;;;4998847;28;20029;-84
2021/07/05 00:24:13;;;;;;;32.72;24.02;;;16.80;99.90;;;;;;4986301;28;20504;-82
2021/07/05 00:26:39;;;;;;;28.42;21.27;;;16.80;99.90;;;;;;4989908;28;20280;-81
2021/07/05 00:29:05;;;;;;;28.73;21.70;;;16.80;99.90;;;;;;4989061;28;20049;-82
2021/07/05 00:31:32;;;;;;;30.48;21.80;;;16.80;99.90;;;;;;4997807;28;20037;-81
2021/07/05 00:33:57;;;;;;;29.05;22.05;;;16.80;99.90;;;;;;4990920;28;20042;-81
2021/07/05 00:36:23;;;;;;;33.05;21.85;;;16.80;99.90;;;;;;4977299;28;20653;-83
2021/07/05 00:38:49;;;;;;;31.23;21.58;;;16.80;99.90;;;;;;5006325;28;20033;-81
2021/07/05 00:41:15;;;;;;;25.98;19.77;;;16.80;99.90;;;;;;4998197;28;20059;-82
2021/07/05 00:43:41;;;;;;;28.50;19.92;;;16.80;99.90;;;;;;4988661;28;20049;-82
2021/07/05 00:46:07;;;;;;;30.45;19.48;;;16.80;99.90;;;;;;4992974;28;20129;-81
2021/07/05 00:48:32;;;;;;;25.05;18.73;;;16.80;99.90;;;;;;4972808;28;20119;-81
2021/07/05 00:50:58;;;;;;;26.83;19.00;;;16.80;99.90;;;;;;4973268;28;20435;-82
2021/07/05 00:53:24;;;;;;;26.88;18.27;;;16.80;99.90;;;;;;4994233;28;20485;-81
2021/07/05 00:55:50;;;;;;;25.05;18.17;;;16.80;99.90;;;;;;5001851;28;20423;-81
2021/07/05 00:58:17;;;;;;;24.40;17.02;;;16.80;99.90;;;;;;5009149;28;20038;-82
2021/07/05 01:00:44;;;;;;;22.00;15.88;;;16.80;99.90;;;;;;4991188;28;20063;-81
2021/07/05 01:03:10;;;;;;;23.38;15.90;;;16.80;99.90;;;;;;4990548;28;20508;-81
2021/07/05 01:05:37;;;;;;;22.88;15.35;;;16.80;99.90;;;;;;5022624;28;20073;-82
2021/07/05 01:08:03;;;;;;;20.52;13.52;;;16.80;99.90;;;;;;4987983;28;20636;-82
2021/07/05 01:10:30;;;;;;;17.15;12.15;;;16.80;99.90;;;;;;4988222;28;20034;-81
2021/07/05 01:12:57;;;;;;;17.17;12.05;;;16.80;99.90;;;;;;5002602;28;20047;-82
2021/07/05 01:15:29;;;;;;;19.35;11.93;;;16.80;99.90;;;;;;5004992;28;20788;-80
2021/07/05 01:17:58;;;;;;;17.08;11.25;;;16.80;99.90;;;;;;4989682;28;20296;-82
2021/07/05 01:20:28;;;;;;;13.90;11.38;;;16.80;99.90;;;;;;5019211;28;20050;-81
2021/07/05 01:22:54;;;;;;;15.50;10.88;;;16.70;99.90;;;;;;5017473;28;20123;-82
2021/07/05 01:25:23;;;;;;;15.35;10.27;;;16.70;99.90;;;;;;4983342;28;20147;-81
2021/07/05 01:27:50;;;;;;;16.92;10.20;;;16.70;99.90;;;;;;5020780;28;20112;-81
2021/07/05 01:30:18;;;;;;;14.50;10.30;;;16.70;99.90;;;;;;5003538;28;20042;-83
2021/07/05 01:32:45;;;;;;;15.68;10.90;;;16.70;99.90;;;;;;4986967;28;20045;-82
2021/07/05 01:35:12;;;;;;;16.42;11.60;;;16.60;99.90;;;;;;4999644;28;20033;-81
2021/07/05 01:37:38;;;;;;;24.13;12.85;;;16.60;99.90;;;;;;5018555;28;20025;-82
2021/07/05 01:40:13;;;;;;;17.90;13.00;;;16.60;99.90;;;;;;4999324;28;20107;-81
2021/07/05 01:42:40;;;;;;;23.50;13.48;;;16.60;99.90;;;;;;4982928;28;20168;-81
2021/07/05 01:45:07;;;;;;;21.20;14.55;;;16.60;99.90;;;;;;5003703;28;20459;-82
2021/07/05 01:47:33;;;;;;;28.70;14.30;;;16.60;99.90;;;;;;5016136;28;21125;-83
2021/07/05 01:49:59;;;;;;;22.10;14.25;;;16.50;99.90;;;;;;4982008;28;20052;-82
2021/07/05 01:52:25;;;;;;;26.23;16.85;;;16.50;99.90;;;;;;4983530;28;20100;-84
2021/07/05 01:54:51;;;;;;;29.08;18.58;;;16.60;99.90;;;;;;4986601;28;20033;-84
2021/07/05 01:57:26;;;;;;;34.47;20.38;;;16.50;99.90;;;;;;5016470;28;20038;-82
2021/07/05 01:59:58;;;;;;;40.83;21.48;;;16.60;99.90;;;;;;5016359;28;20054;-83
2021/07/05 02:02:25;;;;;;;40.13;21.88;;;16.60;99.90;;;;;;4998202;28;20029;-81
2021/07/05 02:04:51;;;;;;;42.50;23.85;;;16.60;99.90;;;;;;5025346;28;20143;-82
2021/07/05 02:07:17;;;;;;;38.38;23.25;;;16.60;99.90;;;;;;4995313;28;20033;-80
2021/07/05 02:09:43;;;;;;;40.63;23.23;;;16.50;99.90;;;;;;5020059;28;20037;-83
2021/07/05 02:12:10;;;;;;;43.35;24.08;;;16.60;99.90;;;;;;4994774;28;20177;-82
2021/07/05 02:14:36;;;;;;;41.10;22.67;;;16.50;99.90;;;;;;4993057;28;20052;-84
2021/07/05 02:17:03;;;;;;;44.67;24.40;;;16.50;99.90;;;;;;4987272;28;20097;-82
2021/07/05 02:19:29;;;;;;;42.30;24.70;;;16.40;99.90;;;;;;5008471;28;20033;-81
2021/07/05 02:21:55;;;;;;;43.70;24.20;;;16.40;99.90;;;;;;4977057;28;20040;-81
2021/07/05 02:24:21;;;;;;;45.45;25.02;;;16.40;99.90;;;;;;4979139;28;20037;-80
2021/07/05 02:26:47;;;;;;;45.33;24.77;;;16.40;99.90;;;;;;5005710;28;20041;-82
2021/07/05 02:29:13;;;;;;;43.40;25.35;;;16.40;99.90;;;;;;4977408;28;20041;-81
2021/07/05 02:31:39;;;;;;;48.70;25.83;;;16.30;99.90;;;;;;4989641;28;20050;-81
2021/07/05 02:34:05;;;;;;;46.05;27.50;;;16.30;99.90;;;;;;4989155;28;20534;-82
2021/07/05 02:36:31;;;;;;;43.92;26.23;;;16.30;99.90;;;;;;4973843;28;20666;-80
2021/07/05 02:38:57;;;;;;;45.63;27.55;;;16.30;99.90;;;;;;4970158;28;20484;-83
2021/07/05 02:41:23;;;;;;;46.78;27.50;;;16.30;99.90;;;;;;4977272;28;20091;-81
2021/07/05 02:43:49;;;;;;;51.30;27.45;;;16.30;99.90;;;;;;4973286;28;20048;-81
2021/07/05 02:46:15;;;;;;;51.47;29.63;;;16.30;99.90;;;;;;4989091;28;20041;-82
2021/07/05 02:48:41;;;;;;;52.90;29.33;;;16.30;99.90;;;;;;5017841;28;20828;-83
2021/07/05 02:51:08;;;;;;;47.40;29.48;;;16.30;99.90;;;;;;4988021;28;20041;-81
2021/07/05 02:53:36;;;;;;;60.00;34.03;;;16.30;99.90;;;;;;4971917;28;20034;-81
2021/07/05 02:56:03;;;;;;;55.15;32.35;;;16.20;99.90;;;;;;4989413;28;20478;-82
2021/07/05 02:58:30;;;;;;;60.35;33.67;;;16.20;99.90;;;;;;5020979;28;20042;-83
2021/07/05 03:00:58;;;;;;;60.80;34.15;;;16.20;99.90;;;;;;4986210;28;20136;-82
2021/07/05 03:03:25;;;;;;;61.85;34.47;;;16.20;99.90;;;;;;5021954;28;20037;-83
2021/07/05 03:05:51;;;;;;;62.70;35.33;;;16.10;99.90;;;;;;5000486;28;20038;-82
2021/07/05 03:08:18;;;;;;;61.05;35.65;;;16.20;99.90;;;;;;4972611;28;20580;-82
2021/07/05 03:10:44;;;;;;;54.85;33.78;;;16.10;99.90;;;;;;4960409;28;20042;-83
2021/07/05 03:13:12;;;;;;;59.22;35.65;;;16.20;99.90;;;;;;5003079;28;20129;-82
2021/07/05 03:15:39;;;;;;;58.55;35.20;;;16.10;99.90;;;;;;5001117;28;20438;-81
2021/07/05 03:18:06;;;;;;;61.17;36.25;;;16.10;99.90;;;;;;4964054;28;20246;-83
2021/07/05 03:20:36;;;;;;;69.72;39.80;;;16.10;99.90;;;;;;5016919;28;20056;-82
2021/07/05 03:23:04;;;;;;;74.70;41.22;;;16.10;99.90;;;;;;5002978;28;20084;-83
2021/07/05 03:25:31;;;;;;;70.78;41.47;;;16.10;99.90;;;;;;4984228;28;20378;-82
2021/07/05 03:27:58;;;;;;;70.22;42.17;;;16.00;99.90;;;;;;5019500;28;21259;-83
2021/07/05 03:30:26;;;;;;;62.58;39.03;;;16.10;99.90;;;;;;5000727;28;20037;-82
2021/07/05 03:32:52;;;;;;;73.95;42.42;;;16.00;99.90;;;;;;5013595;28;20052;-82
2021/07/05 03:35:19;;;;;;;68.05;41.47;;;16.00;99.90;;;;;;4982284;28;20041;-83
2021/07/05 03:37:46;;;;;;;68.57;39.60;;;16.00;99.90;;;;;;4984906;28;20029;-82
2021/07/05 03:40:14;;;;;;;64.82;38.67;;;16.00;99.90;;;;;;4993372;28;20506;-81
2021/07/05 03:42:40;;;;;;;72.72;39.70;;;16.00;99.90;;;;;;4985163;28;20234;-82
2021/07/05 03:45:08;;;;;;;67.70;40.30;;;16.00;99.90;;;;;;5001693;28;20040;-81
2021/07/05 03:47:34;;;;;;;73.57;40.75;;;15.90;99.90;;;;;;5016412;28;20037;-82
2021/07/05 03:50:04;;;;;;;68.68;39.25;;;15.90;99.90;;;;;;5001766;28;20041;-82
2021/07/05 03:52:30;;;;;;;66.47;40.10;;;15.90;99.90;;;;;;5000708;28;20045;-82
2021/07/05 03:54:56;;;;;;;66.38;39.20;;;15.90;99.90;;;;;;4982226;28;20030;-82
2021/07/05 03:57:22;;;;;;;64.93;39.72;;;15.90;99.90;;;;;;5002074;28;20124;-82
2021/07/05 03:59:56;;;;;;;69.75;40.17;;;15.90;99.90;;;;;;4984566;28;20080;-82
2021/07/05 04:02:22;;;;;;;70.13;41.00;;;15.90;99.90;;;;;;5013410;28;20488;-82
2021/07/05 04:04:49;;;;;;;71.25;41.28;;;15.90;99.90;;;;;;4967701;28;20036;-82
2021/07/05 04:07:16;;;;;;;73.97;40.05;;;15.90;99.90;;;;;;5003071;28;20108;-83
2021/07/05 04:09:42;;;;;;;71.15;39.78;;;15.80;99.90;;;;;;4983198;28;20154;-83
2021/07/05 04:12:10;;;;;;;71.70;40.92;;;15.80;99.90;;;;;;4981642;28;20587;-83
2021/07/05 04:14:37;;;;;;;70.90;41.42;;;15.80;99.90;;;;;;5010161;28;20038;-83
2021/07/05 04:17:03;;;;;;;74.55;41.80;;;15.90;99.90;;;;;;5005555;28;20037;-83
2021/07/05 04:19:29;;;;;;;77.28;42.20;;;15.90;99.90;;;;;;5003676;28;20055;-83
2021/07/05 04:21:55;;;;;;;68.18;41.22;;;15.90;99.90;;;;;;5017156;28;20149;-84
2021/07/05 04:24:21;;;;;;;65.78;40.40;;;15.90;99.90;;;;;;5001469;28;20071;-83
2021/07/05 04:26:47;;;;;;;58.53;38.95;;;15.90;99.90;;;;;;5005188;28;20066;-82
2021/07/05 04:29:13;;;;;;;64.63;40.15;;;15.90;99.90;;;;;;5001384;28;20040;-82
2021/07/05 04:31:38;;;;;;;57.67;38.30;;;15.90;99.90;;;;;;4986496;28;20053;-82
2021/07/05 04:34:05;;;;;;;68.95;40.50;;;15.90;99.90;;;;;;5001532;28;20054;-82
2021/07/05 04:36:31;;;;;;;63.95;39.78;;;15.90;99.90;;;;;;5001582;28;20073;-82
2021/07/05 04:38:56;;;;;;;69.10;38.70;;;15.90;99.90;;;;;;5001690;28;20034;-83
2021/07/05 04:41:23;;;;;;;70.13;40.33;;;16.00;99.90;;;;;;5001709;28;20033;-83
2021/07/05 04:43:48;;;;;;;60.88;38.35;;;16.00;99.90;;;;;;4995578;28;20048;-83
2021/07/05 04:46:16;;;;;;;73.85;40.05;;;16.00;99.90;;;;;;4995920;28;20089;-83
2021/07/05 04:48:42;;;;;;;77.50;40.00;;;16.10;99.90;;;;;;5006437;28;20108;-83
2021/07/05 04:51:10;;;;;;;65.63;39.67;;;16.10;99.90;;;;;;4998822;28;20520;-83
2021/07/05 04:53:36;;;;;;;62.92;37.63;;;16.20;99.90;;;;;;4995259;28;20041;-83
2021/07/05 04:56:03;;;;;;;55.20;36.67;;;16.20;99.90;;;;;;4998793;28;20036;-83
2021/07/05 04:58:29;;;;;;;54.17;36.97;;;16.20;99.90;;;;;;4998494;28;20034;-83
2021/07/05 05:00:55;;;;;;;59.03;35.58;;;16.30;99.90;;;;;;4996419;28;20551;-86
2021/07/05 05:03:21;;;;;;;53.25;36.50;;;16.30;99.90;;;;;;4977627;28;20061;-85
2021/07/05 05:05:47;;;;;;;58.78;36.58;;;16.30;99.90;;;;;;4991987;28;20470;-87
2021/07/05 05:08:13;;;;;;;52.53;35.03;;;16.40;99.90;;;;;;4965684;28;20132;-86
2021/07/05 05:10:40;;;;;;;55.67;34.45;;;16.40;99.90;;;;;;4996120;28;20136;-86
2021/07/05 05:13:10;;;;;;;61.42;35.38;;;16.40;99.90;;;;;;4980123;28;20123;-86
2021/07/05 05:15:36;;;;;;;57.22;33.45;;;16.50;99.90;;;;;;4994487;28;20026;-86
2021/07/05 05:18:03;;;;;;;49.35;32.65;;;16.50;99.90;;;;;;4990195;28;20342;-85
2021/07/05 05:20:29;;;;;;;48.22;32.85;;;16.50;99.90;;;;;;4962713;28;20041;-86
2021/07/05 05:22:55;;;;;;;46.85;32.03;;;16.60;99.90;;;;;;4993311;28;20124;-87
2021/07/05 05:25:21;;;;;;;44.47;31.13;;;16.60;99.90;;;;;;4977373;28;20045;-85
2021/07/05 05:27:48;;;;;;;51.92;31.13;;;16.60;99.90;;;;;;4993571;28;20068;-87
2021/07/05 05:30:16;;;;;;;50.28;32.28;;;16.70;99.90;;;;;;4995514;28;20179;-86
2021/07/05 05:32:43;;;;;;;52.30;31.70;;;16.70;99.90;;;;;;4982337;28;20519;-86
2021/07/05 05:35:10;;;;;;;40.72;28.55;;;16.80;99.90;;;;;;4984046;28;20037;-86
2021/07/05 05:37:36;;;;;;;43.50;30.80;;;16.80;99.90;;;;;;4963101;28;20045;-86
2021/07/05 05:40:04;;;;;;;48.22;31.02;;;16.80;99.90;;;;;;4984891;28;20034;-86
2021/07/05 05:42:29;;;;;;;47.33;30.95;;;16.80;99.90;;;;;;4979600;28;20069;-86
2021/07/05 05:44:55;;;;;;;43.03;30.23;;;16.90;99.90;;;;;;4966802;28;20531;-87
2021/07/05 05:47:21;;;;;;;43.28;29.58;;;16.90;99.90;;;;;;4986383;28;20029;-87
2021/07/05 05:49:47;;;;;;;39.97;29.17;;;16.90;99.90;;;;;;4961822;28;20060;-87
2021/07/05 05:52:12;;;;;;;39.63;28.92;;;16.90;99.90;;;;;;4971082;28;20408;-88
2021/07/05 05:54:38;;;;;;;42.90;28.02;;;16.90;99.90;;;;;;4960524;28;20045;-87
2021/07/05 05:57:04;;;;;;;35.25;26.67;;;16.90;99.90;;;;;;4979467;28;20037;-87
2021/07/05 05:59:33;;;;;;;36.65;25.15;;;16.90;99.90;;;;;;4978644;28;20033;-85
2021/07/05 06:01:59;;;;;;;31.92;24.33;;;16.80;99.90;;;;;;5029408;28;20034;-87
2021/07/05 06:04:24;;;;;;;33.25;24.67;;;16.80;99.90;;;;;;4963617;28;20563;-86
2021/07/05 06:06:52;;;;;;;34.55;23.65;;;16.80;99.90;;;;;;4961323;28;20124;-87
2021/07/05 06:09:18;;;;;;;30.98;24.02;;;16.70;99.90;;;;;;4963109;28;20102;-87
2021/07/05 06:11:44;;;;;;;28.75;23.65;;;16.70;99.90;;;;;;4966386;28;20378;-86
2021/07/05 06:14:10;;;;;;;29.05;23.75;;;16.70;99.90;;;;;;4963380;28;20096;-87
2021/07/05 06:16:36;;;;;;;30.20;24.45;;;16.70;99.90;;;;;;5004506;28;20551;-87
2021/07/05 06:19:03;;;;;;;29.88;24.10;;;16.60;99.90;;;;;;5012652;28;20140;-86
2021/07/05 06:21:32;;;;;;;34.97;25.13;;;16.60;99.90;;;;;;5002447;28;20045;-86
2021/07/05 06:23:58;;;;;;;30.80;24.95;;;16.50;99.90;;;;;;4997751;28;20038;-87
2021/07/05 06:26:24;;;;;;;32.45;25.73;;;16.50;99.90;;;;;;5011218;28;20040;-87
2021/07/05 06:28:50;;;;;;;32.78;24.60;;;16.50;99.90;;;;;;4983254;28;20030;-86
2021/07/05 06:31:16;;;;;;;32.03;25.75;;;16.50;99.90;;;;;;4982463;28;20030;-87
2021/07/05 06:33:42;;;;;;;32.60;25.05;;;16.50;99.90;;;;;;4984575;28;20049;-86
2021/07/05 06:36:11;;;;;;;29.77;25.10;;;16.50;99.90;;;;;;4980143;28;20054;-87
2021/07/05 06:38:37;;;;;;;36.83;25.52;;;16.50;99.90;;;;;;4990763;28;20029;-86
2021/07/05 06:41:03;;;;;;;28.70;25.08;;;16.40;99.90;;;;;;4976421;28;20452;-85
2021/07/05 06:43:29;;;;;;;30.17;24.00;;;16.40;99.90;;;;;;4968076;28;20054;-83
2021/07/05 06:45:55;;;;;;;30.98;24.58;;;16.40;99.90;;;;;;4975732;28;20069;-85
2021/07/05 06:48:21;;;;;;;30.83;25.33;;;16.40;99.90;;;;;;5011708;28;20036;-87
2021/07/05 06:50:47;;;;;;;29.77;23.77;;;16.40;99.90;;;;;;4961887;28;20030;-85
2021/07/05 06:53:13;;;;;;;33.08;25.15;;;16.40;99.90;;;;;;4993735;28;20136;-84
2021/07/05 06:55:38;;;;;;;37.38;26.15;;;16.40;99.90;;;;;;4992011;28;20125;-84
2021/07/05 06:58:04;;;;;;;37.58;25.77;;;16.40;99.90;;;;;;4978727;28;20179;-81
2021/07/05 07:00:31;;;;;;;39.47;25.15;;;16.30;99.90;;;;;;4992585;28;20126;-81
2021/07/05 07:02:58;;;;;;;36.13;22.33;;;16.20;99.90;;;;;;4999723;28;20196;-81
2021/07/05 07:05:26;;;;;;;31.80;20.58;;;16.10;99.90;;;;;;4979000;28;20056;-84
2021/07/05 07:07:56;;;;;;;68.18;28.48;;;16.00;99.90;;;;;;4979239;28;21603;-82
2021/07/05 07:10:24;;;;;;;28.63;19.35;;;15.90;99.90;;;;;;5000549;28;20229;-82
2021/07/05 07:12:54;;;;;;;93.13;26.25;;;15.90;99.90;;;;;;5010960;28;20048;-81
2021/07/05 07:15:24;;;;;;;36.90;20.60;;;15.80;99.90;;;;;;5015773;28;20049;-83
2021/07/05 07:17:54;;;;;;;38.25;21.85;;;15.80;99.90;;;;;;5012541;28;20059;-82
2021/07/05 07:20:21;;;;;;;38.22;22.52;;;15.70;99.90;;;;;;4997270;28;20144;-83
2021/07/05 07:22:47;;;;;;;32.67;19.60;;;15.70;99.90;;;;;;5005624;28;20029;-82
2021/07/05 07:25:14;;;;;;;57.08;24.20;;;15.60;99.90;;;;;;5002471;28;20617;-84
2021/07/05 07:27:41;;;;;;;47.47;23.55;;;15.60;99.90;;;;;;5004889;28;20041;-83
2021/07/05 07:30:10;;;;;;;49.08;24.38;;;15.50;99.90;;;;;;4989074;28;20404;-84
2021/07/05 07:32:36;;;;;;;36.83;22.38;;;15.50;99.90;;;;;;5001222;28;20116;-83
2021/07/05 07:35:02;;;;;;;35.65;20.85;;;15.50;99.90;;;;;;4999718;28;20121;-82
2021/07/05 07:37:29;;;;;;;44.83;20.95;;;15.50;99.90;;;;;;5006933;28;20041;-83
2021/07/05 07:39:59;;;;;;;42.33;21.20;;;15.50;99.90;;;;;;5003541;28;20026;-83
2021/07/05 07:42:25;;;;;;;29.30;15.88;;;15.40;99.90;;;;;;4975038;28;20057;-84
2021/07/05 07:44:51;;;;;;;30.52;15.50;;;15.40;99.90;;;;;;5004020;28;20523;-83
2021/07/05 07:47:17;;;;;;;66.30;20.33;;;15.40;99.90;;;;;;4968075;28;20029;-82
2021/07/05 07:49:42;;;;;;;27.55;16.27;;;15.30;99.90;;;;;;5001551;28;20041;-83
2021/07/05 07:52:08;;;;;;;29.50;14.73;;;15.40;99.90;;;;;;4972934;28;20046;-82
2021/07/05 07:54:34;;;;;;;35.67;17.55;;;15.30;99.90;;;;;;4992680;28;20059;-83
2021/07/05 07:57:01;;;;;;;22.02;13.32;;;15.30;99.90;;;;;;4989662;28;20436;-81
2021/07/05 07:59:27;;;;;;;25.67;13.88;;;15.30;99.90;;;;;;4983399;28;20038;-81
2021/07/05 08:01:53;;;;;;;18.05;7.95;;;15.20;99.90;;;;;;4987344;28;20132;-82
2021/07/05 08:04:18;;;;;;;10.93;5.20;;;15.20;99.90;;;;;;4983108;28;20040;-82
2021/07/05 08:06:44;;;;;;;10.18;5.55;;;15.00;99.90;;;;;;4983664;28;20040;-81
2021/07/05 08:09:10;;;;;;;12.07;6.38;;;14.90;99.90;;;;;;5003269;28;20244;-82
2021/07/05 08:11:37;;;;;;;13.82;5.60;;;14.80;99.90;;;;;;4990077;28;20044;-81
2021/07/05 08:14:05;;;;;;;18.52;5.63;;;14.70;99.90;;;;;;4996421;28;20573;-82
2021/07/05 08:16:32;;;;;;;12.50;5.35;;;14.70;99.90;;;;;;4979098;28;20390;-81
2021/07/05 08:18:57;;;;;;;7.55;5.13;;;14.60;99.90;;;;;;4998966;28;20033;-81
2021/07/05 08:21:25;;;;;;;9.00;4.40;;;14.60;99.90;;;;;;5002133;28;20404;-82
2021/07/05 08:23:51;;;;;;;11.20;5.05;;;14.60;99.90;;;;;;4999815;28;20037;-81
2021/07/05 08:26:18;;;;;;;8.57;4.53;;;14.60;99.90;;;;;;4999584;28;20044;-82
2021/07/05 08:28:45;;;;;;;10.52;5.10;;;14.60;99.90;;;;;;4971224;28;20033;-83
2021/07/05 08:31:11;;;;;;;10.82;5.20;;;14.70;99.90;;;;;;4996646;28;20652;-82
2021/07/05 08:33:37;;;;;;;10.57;5.15;;;14.70;99.90;;;;;;4997831;28;20041;-82
2021/07/05 08:36:05;;;;;;;16.13;6.72;;;14.70;99.90;;;;;;4988716;28;20034;-83
2021/07/05 08:38:32;;;;;;;9.70;4.78;;;14.70;99.90;;;;;;5002808;28;20034;-81
2021/07/05 08:41:01;;;;;;;11.18;5.68;;;14.80;99.90;;;;;;5005342;28;20469;-82
2021/07/05 08:43:28;;;;;;;14.25;5.60;;;14.80;99.90;;;;;;5031563;28;20053;-82
2021/07/05 08:46:00;;;;;;;14.27;6.20;;;14.90;99.90;;;;;;4997819;28;20049;-82
2021/07/05 08:48:37;;;;;;;8.90;5.28;;;15.00;99.90;;;;;;5014444;28;20048;-81
2021/07/05 08:51:05;;;;;;;15.18;6.93;;;15.10;99.90;;;;;;5011137;28;20045;-82
2021/07/05 08:53:31;;;;;;;14.57;7.28;;;15.20;99.90;;;;;;5010424;28;20417;-81
2021/07/05 08:55:57;;;;;;;13.05;6.75;;;15.30;99.90;;;;;;4993994;28;20026;-81
2021/07/05 08:58:23;;;;;;;12.90;6.72;;;15.40;99.90;;;;;;5027790;28;20045;-80
2021/07/05 09:00:50;;;;;;;15.68;7.47;;;15.50;99.90;;;;;;5008736;28;20039;-82
2021/07/05 09:03:24;;;;;;;17.58;8.40;;;15.60;99.90;;;;;;5010111;28;20040;-82
2021/07/05 09:06:12;;;;;;;17.60;8.88;;;15.60;99.90;;;;;;4992873;28;20573;-83
2021/07/05 09:08:59;;;;;;;18.50;9.55;;;15.70;99.90;;;;;;5007543;28;20037;-83
2021/07/05 09:11:43;;;;;;;18.88;9.77;;;15.70;99.90;;;;;;4996699;28;20046;-84
2021/07/05 09:14:30;;;;;;;18.67;10.45;;;15.80;99.90;;;;;;5033765;28;20029;-83
2021/07/05 09:16:56;;;;;;;15.55;10.05;;;15.90;99.90;;;;;;5017212;28;20120;-83
2021/07/05 09:19:29;;;;;;;18.10;11.27;;;15.90;99.90;;;;;;4988691;28;20371;-81
2021/07/05 09:22:04;;;;;;;21.08;11.65;;;15.90;99.90;;;;;;5004188;28;20476;-82
2021/07/05 09:24:39;;;;;;;24.48;12.05;;;15.80;99.90;;;;;;4997086;28;20037;-83
2021/07/05 09:27:12;;;;;;;30.17;14.10;;;15.90;99.90;;;;;;5001714;28;20049;-82
2021/07/05 09:29:40;;;;;;;24.27;15.52;;;15.90;99.90;;;;;;5002126;28;20045;-83
2021/07/05 09:32:09;;;;;;;23.48;16.73;;;15.90;99.90;;;;;;5013779;28;20110;-82
2021/07/05 09:34:42;;;;;;;22.38;16.50;;;15.90;99.90;;;;;;4995640;28;20120;-82
2021/07/05 09:37:22;;;;;;;28.15;17.02;;;16.00;99.90;;;;;;4994468;28;20048;-83
2021/07/05 09:40:10;;;;;;;20.45;16.15;;;16.00;99.90;;;;;;4996216;28;20045;-83
2021/07/05 09:42:38;;;;;;;22.63;15.63;;;16.00;99.90;;;;;;5012967;28;20494;-82
2021/07/05 09:45:29;;;;;;;26.67;15.70;;;16.00;99.90;;;;;;4999171;28;20026;-81
2021/07/05 09:48:19;;;;;;;29.23;18.60;;;16.00;99.90;;;;;;5013650;28;20037;-83
2021/07/05 09:51:00;;;;;;;24.27;18.73;;;16.10;99.90;;;;;;5009799;28;20041;-83
2021/07/05 09:53:29;;;;;;;23.83;17.15;;;16.10;99.90;;;;;;5009675;28;20510;-83
2021/07/05 09:56:22;;;;;;;24.98;16.48;;;16.20;99.90;;;;;;4992280;28;20037;-83
2021/07/05 09:58:51;;;;;;;22.42;15.95;;;16.20;99.90;;;;;;5010902;28;20095;-83
2021/07/05 10:01:40;;;;;;;24.15;15.73;;;16.10;99.90;;;;;;5000743;28;20033;-83
2021/07/05 10:04:13;;;;;;;23.70;15.48;;;16.20;99.90;;;;;;5002272;28;20030;-82
2021/07/05 10:06:42;;;;;;;23.15;17.10;;;16.20;99.90;;;;;;4996501;28;20041;-83
2021/07/05 10:09:09;;;;;;;22.65;18.30;;;16.20;99.90;;;;;;5013305;28;20029;-84
2021/07/05 10:11:36;;;;;;;25.75;19.02;;;16.30;99.90;;;;;;4979732;28;20381;-83
2021/07/05 10:14:30;;;;;;;27.65;18.17;;;16.50;99.90;;;;;;4989088;28;20049;-84
2021/07/05 10:16:56;;;;;;;24.65;18.05;;;16.60;99.90;;;;;;4999489;28;20084;-84
2021/07/05 10:19:22;;;;;;;24.75;17.85;;;16.70;99.90;;;;;;5007177;28;20459;-84
2021/07/05 10:21:47;;;;;;;26.40;16.63;;;16.70;99.90;;;;;;4991685;28;20029;-84
2021/07/05 10:24:13;;;;;;;21.85;16.17;;;16.80;99.90;;;;;;4985572;28;20044;-83
2021/07/05 10:26:40;;;;;;;19.55;14.68;;;16.80;99.90;;;;;;4966470;28;20046;-82
2021/07/05 10:29:07;;;;;;;21.40;15.05;;;16.90;99.90;;;;;;5005481;28;20297;-84
2021/07/05 10:31:34;;;;;;;21.60;16.08;;;16.90;99.90;;;;;;4978653;28;20489;-85
2021/07/05 10:34:02;;;;;;;29.70;19.55;;;17.00;99.90;;;;;;5010284;28;20547;-85
2021/07/05 10:36:32;;;;;;;23.95;16.38;;;16.90;99.90;;;;;;4963575;28;20095;-84
2021/07/05 10:39:01;;;;;;;25.40;16.58;;;16.90;99.80;;;;;;5018973;28;20042;-83
2021/07/05 10:41:37;;;;;;;27.85;15.07;;;17.00;99.90;;;;;;5005397;28;20048;-83
2021/07/05 10:44:06;;;;;;;23.35;16.38;;;17.00;99.70;;;;;;4997055;28;20126;-84
2021/07/05 10:46:39;;;;;;;18.77;13.98;;;16.90;99.40;;;;;;4980061;28;20061;-81
2021/07/05 10:49:31;;;;;;;22.88;14.00;;;16.90;99.40;;;;;;4996303;28;20099;-84
2021/07/05 10:52:18;;;;;;;20.20;14.60;;;17.00;99.60;;;;;;4981283;28;20420;-83
2021/07/05 10:54:52;;;;;;;25.23;14.82;;;17.10;99.20;;;;;;4998640;28;20047;-84
2021/07/05 10:57:21;;;;;;;25.60;15.20;;;17.20;99.10;;;;;;4995018;28;20507;-82
2021/07/05 10:59:50;;;;;;;22.20;15.65;;;17.20;98.90;;;;;;4996468;28;20275;-84
2021/07/05 11:02:40;;;;;;;22.90;15.00;;;17.30;98.70;;;;;;4992227;28;20037;-84
2021/07/05 11:05:31;;;;;;;20.48;14.80;;;17.40;98.50;;;;;;5008953;28;20087;-85
2021/07/05 11:08:26;;;;;;;23.13;14.45;;;17.40;98.10;;;;;;5010405;28;20038;-84
2021/07/05 11:11:10;;;;;;;23.02;15.32;;;17.50;97.90;;;;;;4999976;28;20120;-85
2021/07/05 11:13:37;;;;;;;21.55;13.55;;;17.50;97.80;;;;;;5014377;28;20056;-84
2021/07/05 11:16:04;;;;;;;19.88;13.23;;;17.60;97.80;;;;;;5013105;28;20554;-82
2021/07/05 11:18:36;;;;;;;19.58;13.65;;;17.60;97.50;;;;;;4999086;28;20033;-83
2021/07/05 11:21:07;;;;;;;24.40;15.60;;;17.60;97.60;;;;;;4991745;28;20049;-83
2021/07/05 11:24:03;;;;;;;24.33;14.95;;;17.80;98.00;;;;;;4988562;28;20120;-84
2021/07/05 11:26:35;;;;;;;23.20;14.25;;;17.90;97.60;;;;;;4997165;28;20072;-86
2021/07/05 11:29:17;;;;;;;21.27;14.10;;;18.00;97.20;;;;;;5002697;28;20038;-85
2021/07/05 11:31:52;;;;;;;22.70;13.82;;;18.10;97.00;;;;;;5012582;28;20041;-85
2021/07/05 11:34:37;;;;;;;17.48;12.52;;;18.20;96.90;;;;;;4995964;28;20176;-85
2021/07/05 11:37:30;;;;;;;21.45;13.65;;;18.30;96.20;;;;;;4995397;28;20402;-84
2021/07/05 11:39:55;;;;;;;17.90;13.50;;;18.40;96.20;;;;;;4982387;28;20084;-85
2021/07/05 11:42:42;;;;;;;27.70;15.82;;;18.50;95.80;;;;;;4984363;28;20238;-85
2021/07/05 11:45:08;;;;;;;26.10;15.90;;;18.60;96.20;;;;;;5015602;28;20149;-86
2021/07/05 11:47:37;;;;;;;20.30;13.57;;;18.60;96.20;;;;;;4983120;28;20030;-84
2021/07/05 11:50:21;;;;;;;24.00;13.30;;;18.60;95.90;;;;;;5009365;28;20048;-86
2021/07/05 11:52:59;;;;;;;21.00;13.73;;;18.50;95.60;;;;;;4997386;28;20045;-86
2021/07/05 11:55:28;;;;;;;20.40;14.13;;;18.50;95.70;;;;;;5002124;28;20040;-85
2021/07/05 11:57:58;;;;;;;23.80;13.70;;;18.50;96.00;;;;;;5021108;28;20469;-84
2021/07/05 12:00:30;;;;;;;21.73;13.02;;;18.60;96.00;;;;;;4978678;28;20038;-85
2021/07/05 12:03:12;;;;;;;19.70;11.40;;;18.70;95.50;;;;;;5001439;28;20492;-86
2021/07/05 12:05:56;;;;;;;17.67;12.27;;;18.70;95.50;;;;;;5001874;28;20322;-85
2021/07/05 12:08:22;;;;;;;18.77;11.05;;;18.70;95.00;;;;;;4995832;28;20096;-85
2021/07/05 12:10:48;;;;;;;18.13;10.95;;;18.70;95.00;;;;;;4996417;28;20037;-85
2021/07/05 12:13:28;;;;;;;15.25;11.45;;;18.70;94.40;;;;;;4998239;28;20084;-86
2021/07/05 12:16:00;;;;;;;15.48;10.55;;;18.70;94.60;;;;;;5011030;28;20041;-85
2021/07/05 12:18:27;;;;;;;19.27;12.40;;;18.60;94.30;;;;;;4997772;28;20032;-86
2021/07/05 12:21:02;;;;;;;15.70;11.55;;;18.60;94.50;;;;;;5013466;28;20455;-86
2021/07/05 12:23:40;;;;;;;15.50;10.27;;;18.60;94.40;;;;;;4993987;28;20100;-84
2021/07/05 12:26:18;;;;;;;22.15;11.55;;;18.70;94.20;;;;;;4994619;28;20040;-87
2021/07/05 12:29:11;;;;;;;15.02;11.95;;;18.70;94.10;;;;;;5015090;28;20481;-86
2021/07/05 12:31:49;;;;;;;16.55;10.82;;;18.80;94.10;;;;;;4973365;28;20037;-86
2021/07/05 12:34:45;;;;;;;14.93;10.40;;;18.80;93.70;;;;;;5013688;28;20033;-86
2021/07/05 12:37:34;;;;;;;15.77;10.02;;;18.80;93.90;;;;;;5013846;28;20499;-85
2021/07/05 12:40:07;;;;;;;20.42;11.55;;;18.90;93.70;;;;;;5014384;28;20087;-86